createdAt,value
2018-10-09T00:00:47.136Z,1.70
2018-10-09T00:01:47.040Z,1.40
2018-10-09T00:02:47.005Z,1.30
2018-10-09T00:03:46.998Z,1.50
2018-10-09T00:04:47.004Z,1.50
2018-10-09T00:05:46.988Z,1.50
2018-10-09T00:06:46.992Z,1.40
2018-10-09T00:07:46.949Z,1.40
2018-10-09T00:08:46.951Z,1.50
2018-10-09T00:09:46.926Z,1.70
2018-10-09T00:10:46.919Z,1.60
2018-10-09T00:11:46.935Z,1.60
2018-10-09T00:12:46.897Z,1.60
2018-10-09T00:13:46.883Z,1.80
2018-10-09T00:14:46.874Z,1.60
2018-10-09T00:15:46.858Z,1.50
2018-10-09T00:16:46.872Z,1.50
2018-10-09T00:17:46.839Z,1.50
2018-10-09T00:18:46.824Z,1.60
2018-10-09T00:19:46.813Z,1.50
2018-10-09T00:20:46.804Z,1.70
2018-10-09T00:21:46.815Z,1.60
2018-10-09T00:22:46.790Z,1.90
2018-10-09T00:23:46.774Z,1.70
2018-10-09T00:24:46.780Z,1.50
2018-10-09T00:25:46.747Z,1.50
2018-10-09T00:26:46.784Z,1.60
2018-10-09T00:27:46.728Z,1.60
2018-10-09T00:28:46.714Z,1.50
2018-10-09T00:29:46.703Z,1.40
2018-10-09T00:30:46.695Z,1.60
2018-10-09T00:31:46.703Z,1.40
2018-10-09T00:32:46.670Z,1.50
2018-10-09T00:33:46.658Z,1.60
2018-10-09T00:34:46.648Z,1.60
2018-10-09T00:35:46.635Z,1.70
2018-10-09T00:36:46.669Z,1.50
2018-10-09T00:37:46.619Z,1.60
2018-10-09T00:38:46.604Z,1.40
2018-10-09T00:39:46.597Z,1.50
2018-10-09T00:40:46.580Z,1.60
2018-10-09T00:41:46.659Z,1.60
2018-10-09T00:42:46.557Z,1.50
2018-10-09T00:43:46.546Z,1.50
2018-10-09T00:44:46.537Z,1.50
2018-10-09T00:45:46.536Z,1.50
2018-10-09T00:46:46.539Z,1.60
2018-10-09T00:47:46.502Z,1.60
2018-10-09T00:48:46.492Z,1.50
2018-10-09T00:49:46.479Z,1.30
2018-10-09T00:50:46.469Z,1.80
2018-10-09T00:51:46.481Z,1.50
2018-10-09T00:52:46.447Z,1.50
2018-10-09T00:53:46.435Z,1.30
2018-10-09T00:54:46.424Z,1.50
2018-10-09T00:55:46.443Z,1.50
2018-10-09T00:56:46.473Z,1.60
2018-10-09T00:57:46.388Z,1.40
2018-10-09T00:58:46.378Z,1.60
2018-10-09T00:59:46.385Z,1.50
2018-10-09T01:00:46.393Z,1.50
2018-10-09T01:01:46.379Z,1.50
2018-10-09T01:02:46.334Z,1.50
2018-10-09T01:03:46.321Z,1.60
2018-10-09T01:04:46.312Z,1.50
2018-10-09T01:05:46.299Z,1.30
2018-10-09T01:06:46.348Z,1.50
2018-10-09T01:07:46.281Z,1.40
2018-10-09T01:08:46.269Z,1.50
2018-10-09T01:09:46.276Z,1.40
2018-10-09T01:10:46.268Z,1.40
2018-10-09T01:11:46.317Z,1.60
2018-10-09T01:12:46.225Z,1.50
2018-10-09T01:13:46.215Z,1.40
2018-10-09T01:14:46.220Z,1.40
2018-10-09T01:15:46.189Z,1.60
2018-10-09T01:16:46.205Z,1.40
2018-10-09T01:17:46.167Z,1.40
2018-10-09T01:18:46.156Z,1.30
2018-10-09T01:19:46.144Z,1.60
2018-10-09T01:20:46.134Z,1.60
2018-10-09T01:21:46.146Z,1.60
2018-10-09T01:22:46.135Z,1.40
2018-10-09T01:23:46.110Z,1.60
2018-10-09T01:24:46.088Z,1.80
2018-10-09T01:25:46.076Z,1.60
2018-10-09T01:26:46.106Z,1.50
2018-10-09T01:27:46.056Z,1.50
2018-10-09T01:28:46.043Z,1.40
2018-10-09T01:29:46.032Z,1.40
2018-10-09T01:30:46.021Z,1.60
2018-10-09T01:31:46.045Z,1.50
2018-10-09T01:32:45.998Z,1.50
2018-10-09T01:33:46.040Z,1.70
2018-10-09T01:34:45.977Z,1.60
2018-10-09T01:35:45.965Z,1.50
2018-10-09T01:36:46.003Z,1.40
2018-10-09T01:37:45.943Z,1.40
2018-10-09T01:38:45.932Z,1.40
2018-10-09T01:39:45.921Z,1.50
2018-10-09T01:40:45.912Z,1.40
2018-10-09T01:41:45.930Z,1.60
2018-10-09T01:42:45.887Z,1.60
2018-10-09T01:43:45.877Z,1.50
2018-10-09T01:44:45.866Z,1.40
2018-10-09T01:45:45.854Z,1.40
2018-10-09T01:46:45.904Z,1.50
2018-10-09T01:47:45.900Z,1.50
2018-10-09T01:48:45.821Z,1.40
2018-10-09T01:49:45.809Z,1.50
2018-10-09T01:50:45.797Z,1.40
2018-10-09T01:51:45.785Z,1.40
2018-10-09T01:52:45.818Z,1.50
2018-10-09T01:53:45.764Z,1.50
2018-10-09T01:54:45.775Z,1.60
2018-10-09T01:55:45.743Z,1.60
2018-10-09T01:56:45.734Z,1.50
2018-10-09T01:57:45.745Z,1.40
2018-10-09T01:58:45.718Z,1.50
2018-10-09T01:59:45.695Z,1.40
2018-10-09T02:00:45.690Z,1.40
2018-10-09T02:01:45.711Z,1.50
2018-10-09T02:02:45.667Z,1.40
2018-10-09T02:03:45.653Z,1.30
2018-10-09T02:04:45.644Z,1.50
2018-10-09T02:05:45.632Z,1.20
2018-10-09T02:06:45.652Z,1.50
2018-10-09T02:07:45.611Z,1.40
2018-10-09T02:08:45.596Z,1.70
2018-10-09T02:09:45.590Z,1.30
2018-10-09T02:10:45.576Z,1.30
2018-10-09T02:11:45.595Z,1.30
2018-10-09T02:12:45.551Z,1.50
2018-10-09T02:13:45.551Z,1.30
2018-10-09T02:14:45.535Z,1.50
2018-10-09T02:15:45.517Z,1.30
2018-10-09T02:16:45.533Z,1.30
2018-10-09T02:17:45.522Z,1.40
2018-10-09T02:18:45.486Z,1.30
2018-10-09T02:19:45.473Z,1.40
2018-10-09T02:20:45.464Z,1.30
2018-10-09T02:21:45.453Z,1.50
2018-10-09T02:22:45.499Z,1.50
2018-10-09T02:23:45.430Z,1.30
2018-10-09T02:24:45.436Z,1.40
2018-10-09T02:25:45.408Z,1.50
2018-10-09T02:26:45.395Z,1.40
2018-10-09T02:27:45.458Z,1.30
2018-10-09T02:28:45.386Z,1.50
2018-10-09T02:29:45.361Z,1.50
2018-10-09T02:30:45.415Z,1.60
2018-10-09T02:31:45.338Z,1.20
2018-10-09T02:32:45.359Z,1.20
2018-10-09T02:33:45.398Z,1.40
2018-10-09T02:34:45.436Z,1.50
2018-10-09T02:35:45.295Z,1.40
2018-10-09T02:36:45.283Z,1.20
2018-10-09T02:37:45.298Z,1.40
2018-10-09T02:38:45.262Z,1.40
2018-10-09T02:39:45.250Z,1.40
2018-10-09T02:40:45.239Z,1.50
2018-10-09T02:41:45.229Z,1.50
2018-10-09T02:42:45.252Z,1.40
2018-10-09T02:43:45.205Z,1.40
2018-10-09T02:44:45.201Z,1.50
2018-10-09T02:45:45.182Z,1.40
2018-10-09T02:46:45.171Z,1.30
2018-10-09T02:47:45.204Z,1.40
2018-10-09T02:48:45.160Z,1.50
2018-10-09T02:49:45.145Z,1.30
2018-10-09T02:50:45.133Z,1.60
2018-10-09T02:51:45.114Z,1.40
2018-10-09T02:52:45.132Z,1.40
2018-10-09T02:53:45.111Z,1.40
2018-10-09T02:54:45.083Z,1.40
2018-10-09T02:55:45.071Z,1.30
2018-10-09T02:56:45.063Z,1.40
2018-10-09T02:57:45.107Z,1.30
2018-10-09T02:58:45.070Z,1.30
2018-10-09T02:59:45.026Z,1.50
2018-10-09T03:00:45.015Z,1.40
2018-10-09T03:01:45.010Z,1.30
2018-10-09T03:02:44.991Z,1.20
2018-10-09T03:03:45.010Z,1.40
2018-10-09T03:04:45.018Z,1.30
2018-10-09T03:05:44.960Z,1.30
2018-10-09T03:06:44.948Z,1.40
2018-10-09T03:07:44.966Z,1.30
2018-10-09T03:08:44.933Z,1.40
2018-10-09T03:09:44.916Z,1.40
2018-10-09T03:10:44.902Z,1.30
2018-10-09T03:11:44.916Z,1.40
2018-10-09T03:12:44.907Z,1.30
2018-10-09T03:13:44.872Z,1.30
2018-10-09T03:14:44.858Z,1.40
2018-10-09T03:15:44.851Z,1.30
2018-10-09T03:16:44.838Z,1.30
2018-10-09T03:17:44.859Z,1.40
2018-10-09T03:18:44.842Z,1.20
2018-10-09T03:19:44.803Z,1.30
2018-10-09T03:20:44.882Z,1.20
2018-10-09T03:21:44.780Z,1.40
2018-10-09T03:22:44.806Z,1.20
2018-10-09T03:23:44.760Z,1.20
2018-10-09T03:24:44.781Z,1.30
2018-10-09T03:25:44.733Z,1.20
2018-10-09T03:26:44.726Z,1.20
2018-10-09T03:27:44.738Z,1.20
2018-10-09T03:28:44.704Z,1.30
2018-10-09T03:29:44.693Z,1.20
2018-10-09T03:30:44.679Z,1.30
2018-10-09T03:31:44.694Z,1.30
2018-10-09T03:32:44.656Z,1.40
2018-10-09T03:33:44.646Z,1.50
2018-10-09T03:34:44.636Z,1.20
2018-10-09T03:35:44.648Z,1.30
2018-10-09T03:36:44.617Z,1.10
2018-10-09T03:37:44.603Z,1.40
2018-10-09T03:38:44.631Z,1.20
2018-10-09T03:39:44.608Z,1.10
2018-10-09T03:40:44.575Z,1.30
2018-10-09T03:41:44.560Z,1.20
2018-10-09T03:42:44.552Z,1.40
2018-10-09T03:43:44.576Z,1.20
2018-10-09T03:44:44.525Z,1.30
2018-10-09T03:45:44.514Z,1.20
2018-10-09T03:46:44.505Z,1.50
2018-10-09T03:47:44.492Z,1.30
2018-10-09T03:48:44.502Z,1.30
2018-10-09T03:49:44.467Z,1.30
2018-10-09T03:50:44.457Z,1.40
2018-10-09T03:51:44.443Z,1.40
2018-10-09T03:52:44.460Z,1.40
2018-10-09T03:53:44.422Z,1.20
2018-10-09T03:54:44.410Z,1.40
2018-10-09T03:55:44.407Z,1.40
2018-10-09T03:56:44.389Z,1.30
2018-10-09T03:57:44.403Z,1.30
2018-10-09T03:58:44.369Z,1.50
2018-10-09T03:59:44.353Z,1.30
2018-10-09T04:00:44.373Z,1.20
2018-10-09T04:01:44.341Z,1.30
2018-10-09T04:02:44.325Z,1.30
2018-10-09T04:03:44.308Z,1.30
2018-10-09T04:04:44.300Z,1.20
2018-10-09T04:05:44.321Z,1.10
2018-10-09T04:06:44.276Z,1.40
2018-10-09T04:07:44.264Z,1.40
2018-10-09T04:08:44.254Z,1.30
2018-10-09T04:09:44.244Z,1.30
2018-10-09T04:10:44.255Z,1.40
2018-10-09T04:11:44.220Z,1.30
2018-10-09T04:12:44.258Z,1.40
2018-10-09T04:13:44.205Z,1.40
2018-10-09T04:14:44.208Z,1.40
2018-10-09T04:15:44.186Z,1.10
2018-10-09T04:16:44.186Z,1.50
2018-10-09T04:17:44.154Z,1.50
2018-10-09T04:18:44.141Z,1.20
2018-10-09T04:19:44.143Z,1.20
2018-10-09T04:20:44.121Z,1.40
2018-10-09T04:21:44.132Z,1.30
2018-10-09T04:22:44.103Z,1.20
2018-10-09T04:23:44.085Z,1.20
2018-10-09T04:24:44.145Z,1.30
2018-10-09T04:25:44.093Z,1.30
2018-10-09T04:26:44.056Z,1.30
2018-10-09T04:27:44.041Z,1.40
2018-10-09T04:28:44.071Z,1.30
2018-10-09T04:29:44.029Z,1.20
2018-10-09T04:30:44.007Z,1.30
2018-10-09T04:31:43.997Z,1.30
2018-10-09T04:32:43.990Z,1.30
2018-10-09T04:33:43.999Z,1.20
2018-10-09T04:34:44.005Z,1.40
2018-10-09T04:35:44.115Z,1.30
2018-10-09T04:36:43.942Z,1.60
2018-10-09T04:37:43.930Z,1.40
2018-10-09T04:38:43.924Z,1.30
2018-10-09T04:39:43.937Z,1.10
2018-10-09T04:40:43.906Z,1.10
2018-10-09T04:41:43.884Z,1.50
2018-10-09T04:42:43.874Z,1.10
2018-10-09T04:43:43.882Z,1.30
2018-10-09T04:44:43.877Z,1.20
2018-10-09T04:45:43.839Z,1.20
2018-10-09T04:46:43.862Z,1.30
2018-10-09T04:47:43.817Z,1.30
2018-10-09T04:48:43.807Z,1.20
2018-10-09T04:49:43.822Z,1.20
2018-10-09T04:50:43.784Z,1.30
2018-10-09T04:51:43.773Z,1.30
2018-10-09T04:52:43.766Z,1.10
2018-10-09T04:53:43.752Z,1.20
2018-10-09T04:54:43.763Z,1.40
2018-10-09T04:55:43.728Z,1.20
2018-10-09T04:56:43.722Z,1.20
2018-10-09T04:57:43.712Z,1.20
2018-10-09T04:58:43.693Z,1.30
2018-10-09T04:59:43.715Z,1.40
2018-10-09T05:00:43.795Z,1.20
2018-10-09T05:01:43.665Z,1.40
2018-10-09T05:02:43.656Z,1.30
2018-10-09T05:03:43.666Z,1.30
2018-10-09T05:04:43.627Z,1.30
2018-10-09T05:05:43.630Z,1.20
2018-10-09T05:06:43.647Z,1.20
2018-10-09T05:07:43.596Z,1.30
2018-10-09T05:08:43.582Z,1.30
2018-10-09T05:09:43.571Z,1.20
2018-10-09T05:10:43.560Z,1.30
2018-10-09T05:11:43.572Z,1.20
2018-10-09T05:12:43.538Z,1.30
2018-10-09T05:13:43.539Z,1.30
2018-10-09T05:14:43.519Z,1.10
2018-10-09T05:15:43.529Z,1.30
2018-10-09T05:16:43.527Z,1.40
2018-10-09T05:17:43.500Z,1.30
2018-10-09T05:18:43.469Z,1.30
2018-10-09T05:19:43.460Z,1.30
2018-10-09T05:20:43.446Z,1.20
2018-10-09T05:21:43.465Z,1.20
2018-10-09T05:22:43.426Z,1.30
2018-10-09T05:23:43.417Z,1.20
2018-10-09T05:24:43.428Z,1.40
2018-10-09T05:25:43.395Z,1.70
2018-10-09T05:26:43.412Z,1.40
2018-10-09T05:27:43.391Z,1.40
2018-10-09T05:28:43.360Z,1.50
2018-10-09T05:29:43.386Z,1.30
2018-10-09T05:30:43.336Z,1.30
2018-10-09T05:31:43.372Z,1.20
2018-10-09T05:32:43.319Z,1.30
2018-10-09T05:33:43.303Z,1.30
2018-10-09T05:34:43.326Z,1.40
2018-10-09T05:35:43.333Z,1.50
2018-10-09T05:36:43.283Z,1.30
2018-10-09T05:37:43.329Z,1.20
2018-10-09T05:38:43.248Z,1.40
2018-10-09T05:39:43.262Z,1.20
2018-10-09T05:40:43.268Z,1.40
2018-10-09T05:41:43.212Z,1.40
2018-10-09T05:42:43.200Z,1.30
2018-10-09T05:43:43.191Z,1.30
2018-10-09T05:44:43.289Z,1.50
2018-10-09T05:45:43.229Z,1.60
2018-10-09T05:46:43.160Z,1.30
2018-10-09T05:47:43.154Z,1.50
2018-10-09T05:48:43.156Z,1.40
2018-10-09T05:49:43.124Z,1.40
2018-10-09T05:50:43.146Z,1.60
2018-10-09T05:51:43.104Z,1.60
2018-10-09T05:52:43.173Z,1.50
2018-10-09T05:53:43.078Z,1.80
2018-10-09T05:54:43.071Z,1.80
2018-10-09T05:55:43.139Z,1.60
2018-10-09T05:56:43.090Z,2.00
2018-10-09T05:57:43.120Z,3.70
2018-10-09T05:58:43.042Z,5.90
2018-10-09T05:59:43.079Z,6.20
2018-10-09T06:00:42.999Z,7.00
2018-10-09T06:01:43.014Z,7.70
2018-10-09T06:02:42.976Z,7.20
2018-10-09T06:03:42.967Z,6.90
2018-10-09T06:04:42.967Z,7.40
2018-10-09T06:05:42.946Z,7.30
2018-10-09T06:06:42.960Z,7.60
2018-10-09T06:07:42.921Z,7.60
2018-10-09T06:08:42.910Z,7.70
2018-10-09T06:09:42.957Z,7.70
2018-10-09T06:10:42.889Z,8.00
2018-10-09T06:11:42.901Z,8.00
2018-10-09T06:12:42.889Z,7.60
2018-10-09T06:13:42.858Z,8.30
2018-10-09T06:14:42.874Z,8.10
2018-10-09T06:15:42.901Z,8.50
2018-10-09T06:16:42.880Z,8.30
2018-10-09T06:17:42.837Z,8.30
2018-10-09T06:18:42.797Z,8.40
2018-10-09T06:19:42.952Z,8.40
2018-10-09T06:20:42.813Z,8.20
2018-10-09T06:21:42.767Z,8.10
2018-10-09T06:22:42.760Z,8.30
2018-10-09T06:23:42.742Z,8.00
2018-10-09T06:24:42.766Z,7.40
2018-10-09T06:25:42.733Z,6.80
2018-10-09T06:26:42.708Z,6.30
2018-10-09T06:27:42.699Z,6.10
2018-10-09T06:28:42.773Z,5.60
2018-10-09T06:29:42.691Z,5.30
2018-10-09T06:30:42.666Z,5.80
2018-10-09T06:31:42.658Z,5.20
2018-10-09T06:32:42.644Z,5.10
2018-10-09T06:33:42.662Z,4.70
2018-10-09T06:34:42.621Z,5.00
2018-10-09T06:35:42.609Z,4.60
2018-10-09T06:36:42.619Z,4.90
2018-10-09T06:37:42.586Z,4.40
2018-10-09T06:38:42.627Z,4.90
2018-10-09T06:39:42.627Z,4.70
2018-10-09T06:40:42.555Z,4.60
2018-10-09T06:41:42.542Z,4.30
2018-10-09T06:42:42.602Z,4.60
2018-10-09T06:43:42.517Z,4.30
2018-10-09T06:44:42.550Z,3.80
2018-10-09T06:45:42.495Z,3.90
2018-10-09T06:46:42.489Z,4.00
2018-10-09T06:47:42.654Z,4.10
2018-10-09T06:48:42.480Z,4.10
2018-10-09T06:49:42.751Z,3.90
2018-10-09T06:50:42.440Z,4.20
2018-10-09T06:51:42.427Z,3.70
2018-10-09T06:52:42.419Z,3.90
2018-10-09T06:53:42.572Z,3.90
2018-10-09T06:54:42.668Z,3.90
2018-10-09T06:55:42.385Z,3.90
2018-10-09T06:56:42.390Z,3.50
2018-10-09T06:57:42.362Z,3.70
2018-10-09T06:58:42.375Z,3.90
2018-10-09T06:59:42.341Z,3.50
2018-10-09T07:00:42.340Z,3.80
2018-10-09T07:01:42.318Z,3.30
2018-10-09T07:02:42.337Z,3.80
2018-10-09T07:03:42.311Z,3.30
2018-10-09T07:04:42.287Z,3.60
2018-10-09T07:05:42.272Z,3.50
2018-10-09T07:06:42.287Z,3.50
2018-10-09T07:07:42.256Z,3.50
2018-10-09T07:08:42.240Z,3.30
2018-10-09T07:09:42.230Z,3.60
2018-10-09T07:10:42.219Z,3.40
2018-10-09T07:11:42.330Z,3.60
2018-10-09T07:12:42.195Z,3.30
2018-10-09T07:13:42.184Z,3.30
2018-10-09T07:14:42.201Z,3.40
2018-10-09T07:15:42.162Z,3.60
2018-10-09T07:16:42.151Z,3.50
2018-10-09T07:17:42.167Z,3.70
2018-10-09T07:18:42.127Z,3.50
2018-10-09T07:19:42.115Z,3.40
2018-10-09T07:20:42.106Z,3.20
2018-10-09T07:21:42.095Z,3.20
2018-10-09T07:22:42.104Z,3.40
2018-10-09T07:23:42.073Z,3.50
2018-10-09T07:24:42.060Z,3.70
2018-10-09T07:25:42.049Z,3.50
2018-10-09T07:26:42.088Z,3.50
2018-10-09T07:27:42.144Z,3.70
2018-10-09T07:28:42.019Z,3.50
2018-10-09T07:29:42.003Z,3.80
2018-10-09T07:30:41.993Z,3.40
2018-10-09T07:31:42.002Z,3.60
2018-10-09T07:32:41.972Z,3.10
2018-10-09T07:33:41.966Z,3.50
2018-10-09T07:34:41.981Z,3.60
2018-10-09T07:35:41.941Z,3.90
2018-10-09T07:36:41.932Z,3.60
2018-10-09T07:37:42.003Z,3.40
2018-10-09T07:38:41.906Z,3.70
2018-10-09T07:39:41.920Z,3.80
2018-10-09T07:40:41.883Z,3.10
2018-10-09T07:41:41.876Z,4.00
2018-10-09T07:42:41.916Z,3.50
2018-10-09T07:43:41.887Z,3.60
2018-10-09T07:44:41.837Z,3.60
2018-10-09T07:45:41.830Z,3.40
2018-10-09T07:46:41.816Z,3.50
2018-10-09T07:47:41.866Z,3.70
2018-10-09T07:48:41.792Z,3.80
2018-10-09T07:49:41.782Z,3.40
2018-10-09T07:50:41.807Z,3.20
2018-10-09T07:51:41.852Z,3.60
2018-10-09T07:52:41.836Z,3.60
2018-10-09T07:53:41.737Z,3.40
2018-10-09T07:54:41.727Z,3.30
2018-10-09T07:55:41.723Z,3.70
2018-10-09T07:56:41.708Z,3.60
2018-10-09T07:57:41.752Z,3.60
2018-10-09T07:58:41.780Z,3.60
2018-10-09T07:59:41.675Z,3.50
2018-10-09T08:00:41.667Z,3.50
2018-10-09T08:01:41.658Z,3.40
2018-10-09T08:02:41.662Z,3.60
2018-10-09T08:03:41.629Z,3.80
2018-10-09T08:04:41.682Z,3.70
2018-10-09T08:05:41.608Z,3.70
2018-10-09T08:06:41.620Z,3.70
2018-10-09T08:07:41.581Z,3.90
2018-10-09T08:08:41.572Z,3.40
2018-10-09T08:09:41.571Z,3.50
2018-10-09T08:10:41.600Z,3.40
2018-10-09T08:11:41.562Z,3.20
2018-10-09T08:12:41.527Z,3.40
2018-10-09T08:13:41.607Z,3.40
2018-10-09T08:14:41.511Z,3.10
2018-10-09T08:15:41.493Z,3.80
2018-10-09T08:16:41.494Z,3.50
2018-10-09T08:17:41.471Z,3.70
2018-10-09T08:18:41.521Z,3.40
2018-10-09T08:19:41.451Z,3.50
2018-10-09T08:20:41.446Z,3.70
2018-10-09T08:21:41.433Z,3.30
2018-10-09T08:22:41.590Z,3.50
2018-10-09T08:23:41.437Z,3.30
2018-10-09T08:24:41.395Z,3.50
2018-10-09T08:25:41.434Z,3.70
2018-10-09T08:26:41.372Z,3.50
2018-10-09T08:27:41.363Z,3.60
2018-10-09T08:28:41.373Z,3.40
2018-10-09T08:29:41.666Z,3.60
2018-10-09T08:30:41.342Z,3.60
2018-10-09T08:31:41.322Z,3.80
2018-10-09T08:32:41.309Z,3.50
2018-10-09T08:33:41.327Z,3.40
2018-10-09T08:34:41.455Z,3.40
2018-10-09T08:35:41.272Z,3.30
2018-10-09T08:36:41.258Z,3.30
2018-10-09T08:37:41.251Z,3.40
2018-10-09T08:38:41.241Z,3.90
2018-10-09T08:39:41.249Z,3.70
2018-10-09T08:40:41.214Z,3.70
2018-10-09T08:41:41.217Z,3.70
2018-10-09T08:42:41.278Z,3.90
2018-10-09T08:43:41.213Z,4.10
2018-10-09T08:44:41.169Z,4.60
2018-10-09T08:45:41.170Z,4.70
2018-10-09T08:46:41.148Z,4.40
2018-10-09T08:47:41.137Z,4.50
2018-10-09T08:48:41.151Z,4.30
2018-10-09T08:49:41.157Z,5.20
2018-10-09T08:50:41.159Z,4.60
2018-10-09T08:51:41.105Z,4.70
2018-10-09T08:52:41.082Z,4.70
2018-10-09T08:53:41.069Z,4.50
2018-10-09T08:54:41.059Z,4.30
2018-10-09T08:55:41.070Z,4.10
2018-10-09T08:56:41.036Z,4.30
2018-10-09T08:57:41.027Z,4.60
2018-10-09T08:58:41.029Z,4.50
2018-10-09T08:59:41.003Z,4.60
2018-10-09T09:00:41.016Z,4.80
2018-10-09T09:01:40.981Z,4.80
2018-10-09T09:02:40.971Z,4.60
2018-10-09T09:03:41.010Z,4.70
2018-10-09T09:04:40.946Z,4.60
2018-10-09T09:05:40.961Z,4.60
2018-10-09T09:06:40.924Z,4.70
2018-10-09T09:07:40.913Z,4.40
2018-10-09T09:08:40.972Z,4.60
2018-10-09T09:09:40.984Z,4.50
2018-10-09T09:10:40.915Z,4.60
2018-10-09T09:11:40.869Z,5.00
2018-10-09T09:12:40.867Z,4.50
2018-10-09T09:13:40.889Z,5.20
2018-10-09T09:14:40.837Z,4.90
2018-10-09T09:15:40.825Z,4.70
2018-10-09T09:16:40.822Z,4.80
2018-10-09T09:17:40.829Z,4.50
2018-10-09T09:18:40.792Z,4.90
2018-10-09T09:19:40.780Z,4.60
2018-10-09T09:20:40.859Z,4.80
2018-10-09T09:21:40.757Z,4.70
2018-10-09T09:22:40.778Z,4.60
2018-10-09T09:23:40.736Z,4.60
2018-10-09T09:24:40.749Z,4.70
2018-10-09T09:25:40.770Z,4.80
2018-10-09T09:26:40.829Z,5.00
2018-10-09T09:27:40.710Z,4.60
2018-10-09T09:28:40.679Z,4.70
2018-10-09T09:29:40.694Z,4.80
2018-10-09T09:30:40.657Z,4.60
2018-10-09T09:31:40.651Z,4.50
2018-10-09T09:32:40.645Z,5.10
2018-10-09T09:33:40.629Z,4.70
2018-10-09T09:34:40.640Z,4.80
2018-10-09T09:35:40.602Z,4.90
2018-10-09T09:36:40.592Z,4.80
2018-10-09T09:37:40.579Z,4.90
2018-10-09T09:38:40.583Z,4.90
2018-10-09T09:39:40.581Z,5.10
2018-10-09T09:40:40.551Z,4.80
2018-10-09T09:41:40.534Z,4.90
2018-10-09T09:42:40.529Z,5.10
2018-10-09T09:43:40.514Z,4.70
2018-10-09T09:44:40.525Z,4.30
2018-10-09T09:45:40.524Z,4.70
2018-10-09T09:46:40.479Z,4.50
2018-10-09T09:47:40.503Z,4.70
2018-10-09T09:48:40.457Z,4.50
2018-10-09T09:49:40.474Z,4.90
2018-10-09T09:50:40.434Z,4.80
2018-10-09T09:51:40.424Z,4.80
2018-10-09T09:52:40.414Z,4.90
2018-10-09T09:53:40.425Z,4.80
2018-10-09T09:54:40.428Z,4.70
2018-10-09T09:55:40.382Z,4.20
2018-10-09T09:56:40.367Z,4.50
2018-10-09T09:57:40.360Z,4.40
2018-10-09T09:58:40.507Z,4.50
2018-10-09T09:59:40.360Z,4.70
2018-10-09T10:00:40.331Z,4.40
2018-10-09T10:01:40.314Z,4.50
2018-10-09T10:02:40.348Z,5.00
2018-10-09T10:03:40.338Z,4.50
2018-10-09T10:04:40.302Z,4.70
2018-10-09T10:05:40.271Z,4.90
2018-10-09T10:06:40.257Z,4.50
2018-10-09T10:07:40.247Z,4.20
2018-10-09T10:08:40.235Z,4.50
2018-10-09T10:09:40.247Z,4.40
2018-10-09T10:10:40.244Z,4.70
2018-10-09T10:11:40.201Z,4.40
2018-10-09T10:12:40.191Z,4.70
2018-10-09T10:13:40.180Z,4.70
2018-10-09T10:14:40.169Z,4.70
2018-10-09T10:15:40.208Z,4.50
2018-10-09T10:16:40.188Z,4.90
2018-10-09T10:17:40.140Z,4.80
2018-10-09T10:18:40.125Z,4.40
2018-10-09T10:19:40.125Z,4.50
2018-10-09T10:20:40.104Z,4.90
2018-10-09T10:21:40.116Z,4.80
2018-10-09T10:22:40.083Z,4.60
2018-10-09T10:23:40.069Z,4.60
2018-10-09T10:24:40.056Z,4.40
2018-10-09T10:25:40.046Z,4.30
2018-10-09T10:26:40.062Z,4.40
2018-10-09T10:27:40.035Z,4.50
2018-10-09T10:28:40.040Z,4.60
2018-10-09T10:29:40.009Z,4.60
2018-10-09T10:30:39.989Z,4.30
2018-10-09T10:31:39.978Z,4.30
2018-10-09T10:32:39.969Z,4.60
2018-10-09T10:33:39.984Z,4.20
2018-10-09T10:34:39.945Z,4.40
2018-10-09T10:35:39.996Z,4.20
2018-10-09T10:36:39.957Z,4.10
2018-10-09T10:37:39.928Z,4.30
2018-10-09T10:38:39.925Z,4.50
2018-10-09T10:39:39.902Z,4.60
2018-10-09T10:40:39.878Z,4.30
2018-10-09T10:41:39.868Z,4.00
2018-10-09T10:42:39.858Z,4.20
2018-10-09T10:43:39.880Z,4.20
2018-10-09T10:44:39.836Z,4.40
2018-10-09T10:45:39.822Z,4.70
2018-10-09T10:46:39.816Z,4.10
2018-10-09T10:47:39.799Z,4.30
2018-10-09T10:48:39.816Z,3.90
2018-10-09T10:49:39.778Z,4.30
2018-10-09T10:50:39.815Z,4.20
2018-10-09T10:51:39.757Z,4.10
2018-10-09T10:52:39.774Z,4.30
2018-10-09T10:53:39.733Z,4.60
2018-10-09T10:54:39.723Z,4.10
2018-10-09T10:55:39.711Z,4.70
2018-10-09T10:56:39.705Z,4.20
2018-10-09T10:57:39.714Z,4.10
2018-10-09T10:58:39.680Z,4.20
2018-10-09T10:59:39.669Z,4.50
2018-10-09T11:00:39.657Z,4.30
2018-10-09T11:01:39.721Z,3.90
2018-10-09T11:02:39.657Z,4.30
2018-10-09T11:03:39.623Z,4.10
2018-10-09T11:04:39.612Z,4.20
2018-10-09T11:05:39.606Z,4.40
2018-10-09T11:06:39.603Z,4.40
2018-10-09T11:07:39.604Z,3.80
2018-10-09T11:08:39.566Z,4.20
2018-10-09T11:09:39.555Z,4.40
2018-10-09T11:10:39.546Z,4.30
2018-10-09T11:11:39.533Z,4.10
2018-10-09T11:12:39.546Z,5.70
2018-10-09T11:13:39.511Z,6.60
2018-10-09T11:14:39.575Z,6.30
2018-10-09T11:15:39.507Z,6.40
2018-10-09T11:16:39.477Z,6.30
2018-10-09T11:17:39.500Z,6.50
2018-10-09T11:18:39.469Z,6.20
2018-10-09T11:19:39.443Z,6.10
2018-10-09T11:20:39.433Z,6.30
2018-10-09T11:21:39.483Z,6.70
2018-10-09T11:22:39.447Z,6.70
2018-10-09T11:23:39.402Z,7.30
2018-10-09T11:24:39.397Z,7.50
2018-10-09T11:25:39.377Z,7.10
2018-10-09T11:26:39.366Z,7.30
2018-10-09T11:27:39.402Z,7.80
2018-10-09T11:28:39.345Z,7.50
2018-10-09T11:29:39.359Z,7.20
2018-10-09T11:30:39.345Z,7.40
2018-10-09T11:31:39.352Z,6.80
2018-10-09T11:32:39.339Z,7.60
2018-10-09T11:33:39.286Z,8.00
2018-10-09T11:34:39.330Z,7.40
2018-10-09T11:35:39.293Z,7.30
2018-10-09T11:36:39.253Z,7.10
2018-10-09T11:37:39.260Z,7.80
2018-10-09T11:38:39.231Z,7.60
2018-10-09T11:39:39.458Z,7.30
2018-10-09T11:40:39.314Z,7.60
2018-10-09T11:41:39.219Z,7.10
2018-10-09T11:42:39.228Z,7.40
2018-10-09T11:43:39.176Z,7.00
2018-10-09T11:44:39.213Z,7.30
2018-10-09T11:45:39.155Z,7.10
2018-10-09T11:46:39.147Z,7.00
2018-10-09T11:47:39.157Z,7.40
2018-10-09T11:48:39.213Z,7.40
2018-10-09T11:49:39.162Z,7.10
2018-10-09T11:50:39.099Z,7.30
2018-10-09T11:51:39.088Z,7.20
2018-10-09T11:52:39.076Z,7.00
2018-10-09T11:53:39.066Z,6.50
2018-10-09T11:54:39.087Z,7.20
2018-10-09T11:55:39.045Z,7.40
2018-10-09T11:56:39.031Z,7.20
2018-10-09T11:57:39.027Z,7.40
2018-10-09T11:58:39.066Z,7.00
2018-10-09T11:59:39.075Z,6.90
2018-10-09T12:00:38.986Z,6.80
2018-10-09T12:01:38.975Z,6.70
2018-10-09T12:02:38.972Z,6.10
2018-10-09T12:03:38.997Z,6.40
2018-10-09T12:04:38.940Z,6.00
2018-10-09T12:05:38.955Z,6.00
2018-10-09T12:06:38.920Z,6.40
2018-10-09T12:07:38.917Z,6.40
2018-10-09T12:08:38.951Z,6.00
2018-10-09T12:09:38.888Z,6.50
2018-10-09T12:10:38.875Z,6.10
2018-10-09T12:11:38.863Z,6.20
2018-10-09T12:12:38.852Z,5.50
2018-10-09T12:13:38.866Z,5.80
2018-10-09T12:14:38.855Z,5.80
2018-10-09T12:15:38.835Z,5.70
2018-10-09T12:16:38.809Z,5.90
2018-10-09T12:17:38.796Z,6.30
2018-10-09T12:18:38.786Z,6.40
2018-10-09T12:19:38.806Z,6.30
2018-10-09T12:20:38.763Z,6.50
2018-10-09T12:21:38.782Z,6.00
2018-10-09T12:22:38.743Z,5.70
2018-10-09T12:23:38.729Z,5.70
2018-10-09T12:24:38.751Z,5.70
2018-10-09T12:25:38.708Z,5.60
2018-10-09T12:26:38.698Z,5.80
2018-10-09T12:27:38.686Z,5.90
2018-10-09T12:28:38.684Z,5.60
2018-10-09T12:29:38.687Z,6.00
2018-10-09T12:30:38.652Z,5.30
2018-10-09T12:31:38.700Z,5.50
2018-10-09T12:32:38.628Z,5.60
2018-10-09T12:33:38.630Z,4.90
2018-10-09T12:34:38.604Z,5.10
2018-10-09T12:35:38.631Z,5.70
2018-10-09T12:36:38.582Z,6.20
2018-10-09T12:37:38.571Z,6.10
2018-10-09T12:38:38.560Z,5.70
2018-10-09T12:39:38.560Z,5.20
2018-10-09T12:40:38.572Z,5.60
2018-10-09T12:41:38.526Z,5.00
2018-10-09T12:42:38.595Z,5.10
2018-10-09T12:43:38.539Z,5.70
2018-10-09T12:44:38.495Z,5.50
2018-10-09T12:45:38.511Z,5.00
2018-10-09T12:46:38.475Z,5.60
2018-10-09T12:47:38.459Z,5.20
2018-10-09T12:48:38.449Z,5.20
2018-10-09T12:49:38.437Z,5.50
2018-10-09T12:50:38.452Z,5.20
2018-10-09T12:51:38.414Z,5.30
2018-10-09T12:52:38.404Z,5.10
2018-10-09T12:53:38.392Z,5.60
2018-10-09T12:54:38.405Z,6.00
2018-10-09T12:55:38.369Z,5.70
2018-10-09T12:56:38.364Z,6.10
2018-10-09T12:57:38.371Z,5.30
2018-10-09T12:58:38.391Z,5.80
2018-10-09T12:59:38.345Z,5.60
2018-10-09T13:00:38.366Z,5.40
2018-10-09T13:01:38.435Z,5.50
2018-10-09T13:02:38.461Z,5.40
2018-10-09T13:03:38.281Z,5.00
2018-10-09T13:04:38.282Z,5.70
2018-10-09T13:05:38.265Z,5.50
2018-10-09T13:06:38.248Z,5.30
2018-10-09T13:07:38.328Z,5.00
2018-10-09T13:08:38.236Z,5.70
2018-10-09T13:09:38.346Z,5.20
2018-10-09T13:10:38.203Z,5.20
2018-10-09T13:11:38.194Z,5.40
2018-10-09T13:12:38.226Z,5.50
2018-10-09T13:13:38.169Z,5.50
2018-10-09T13:14:38.160Z,5.30
2018-10-09T13:15:38.147Z,4.90
2018-10-09T13:16:38.256Z,5.60
2018-10-09T13:17:38.178Z,5.60
2018-10-09T13:18:38.114Z,6.20